createdAt,value
2018-06-27T00:00:45.750Z,9.70
2018-06-27T00:03:14.236Z,9.70
2018-06-27T00:05:42.810Z,9.60
2018-06-27T00:08:11.451Z,9.50
2018-06-27T00:10:40.111Z,9.50
2018-06-27T00:13:08.533Z,9.50
2018-06-27T00:15:37.042Z,9.40
2018-06-27T00:18:05.702Z,9.40
2018-06-27T00:20:34.303Z,9.40
2018-06-27T00:23:02.830Z,9.40
2018-06-27T00:25:31.298Z,9.40
2018-06-27T00:27:59.971Z,9.30
2018-06-27T00:30:28.413Z,9.30
2018-06-27T00:32:56.969Z,9.30
2018-06-27T00:35:25.388Z,9.30
2018-06-27T00:37:54.075Z,9.20
2018-06-27T00:40:22.510Z,9.20
2018-06-27T00:42:50.948Z,9.10
2018-06-27T00:45:19.552Z,9.00
2018-06-27T00:47:48.115Z,9.00
2018-06-27T00:50:16.608Z,9.10
2018-06-27T00:52:45.054Z,9.10
2018-06-27T00:55:13.450Z,9.00
2018-06-27T00:57:41.935Z,9.00
2018-06-27T01:00:10.390Z,9.00
2018-06-27T01:02:38.810Z,8.90
2018-06-27T01:05:07.496Z,8.90
2018-06-27T01:07:36.182Z,8.90
2018-06-27T01:10:04.762Z,8.80
2018-06-27T01:12:33.355Z,8.80
2018-06-27T01:15:01.793Z,8.90
2018-06-27T01:17:30.276Z,8.90
2018-06-27T01:19:59.634Z,8.80
2018-06-27T01:22:28.146Z,8.70
2018-06-27T01:24:56.590Z,8.70
2018-06-27T01:27:25.138Z,8.60
2018-06-27T01:29:53.543Z,8.70
2018-06-27T01:32:22.079Z,8.60
2018-06-27T01:34:50.771Z,8.60
2018-06-27T01:37:19.278Z,8.60
2018-06-27T01:39:47.676Z,8.50
2018-06-27T01:44:44.235Z,8.50
2018-06-27T01:47:12.700Z,8.50
2018-06-27T01:49:41.098Z,8.50
2018-06-27T01:52:09.679Z,8.60
2018-06-27T01:54:38.199Z,8.50
2018-06-27T01:57:06.837Z,8.50
2018-06-27T01:59:35.389Z,8.40
2018-06-27T02:02:03.892Z,8.30
2018-06-27T02:04:32.428Z,8.20
2018-06-27T02:07:00.904Z,8.10
2018-06-27T02:09:29.368Z,8.10
2018-06-27T02:11:57.858Z,8.10
2018-06-27T02:14:26.403Z,8.10
2018-06-27T02:16:54.886Z,8.00
2018-06-27T02:19:23.358Z,8.00
2018-06-27T02:21:51.763Z,8.00
2018-06-27T02:24:20.328Z,8.10
2018-06-27T02:26:48.936Z,8.00
2018-06-27T02:29:17.558Z,8.00
2018-06-27T02:31:46.224Z,7.90
2018-06-27T02:34:14.977Z,7.90
2018-06-27T02:36:43.883Z,8.00
2018-06-27T02:39:13.004Z,7.90
2018-06-27T02:41:42.518Z,8.00
2018-06-27T02:44:11.795Z,7.90
2018-06-27T02:46:40.254Z,7.90
2018-06-27T02:49:08.720Z,7.80
2018-06-27T02:51:37.227Z,7.80
2018-06-27T02:54:05.877Z,7.80
2018-06-27T02:56:34.705Z,7.70
2018-06-27T02:59:03.136Z,7.70
2018-06-27T03:01:31.685Z,7.70
2018-06-27T03:04:00.287Z,7.70
2018-06-27T03:06:28.875Z,7.80
2018-06-27T03:08:57.527Z,7.80
2018-06-27T03:11:26.203Z,7.70
2018-06-27T03:13:54.867Z,7.60
2018-06-27T03:16:23.372Z,7.60
2018-06-27T03:18:54.116Z,7.70
2018-06-27T03:21:23.192Z,7.60
2018-06-27T03:23:51.884Z,7.50
2018-06-27T03:26:20.643Z,7.60
2018-06-27T03:28:49.923Z,7.40
2018-06-27T03:31:18.850Z,7.60
2018-06-27T03:33:47.662Z,7.50
2018-06-27T03:36:16.146Z,7.40
2018-06-27T03:38:44.568Z,7.40
2018-06-27T03:41:13.176Z,7.40
2018-06-27T03:43:41.759Z,7.40
2018-06-27T03:46:10.925Z,7.40
2018-06-27T03:48:39.427Z,7.50
2018-06-27T03:51:07.868Z,7.50
2018-06-27T03:53:42.004Z,7.50
2018-06-27T03:56:11.955Z,7.60
2018-06-27T03:58:40.832Z,7.50
2018-06-27T04:01:10.355Z,7.50
2018-06-27T04:03:40.431Z,7.60
2018-06-27T04:06:09.743Z,7.50
2018-06-27T04:08:38.367Z,7.50
2018-06-27T04:11:07.123Z,7.50
2018-06-27T04:13:36.071Z,7.60
2018-06-27T04:16:04.679Z,7.80
2018-06-27T04:18:33.123Z,7.80
2018-06-27T04:21:02.331Z,7.80
2018-06-27T04:23:30.985Z,7.80
2018-06-27T04:25:59.387Z,7.90
2018-06-27T04:28:27.901Z,7.90
2018-06-27T04:30:56.822Z,7.80
2018-06-27T04:33:25.380Z,8.00
2018-06-27T04:35:54.059Z,8.00
2018-06-27T04:38:23.073Z,8.10
2018-06-27T04:40:51.587Z,8.20
2018-06-27T04:43:20.023Z,8.30
2018-06-27T04:45:49.263Z,8.30
2018-06-27T04:48:17.923Z,8.40
2018-06-27T04:50:46.559Z,8.50
2018-06-27T04:53:15.119Z,8.60
2018-06-27T04:55:43.739Z,8.70
2018-06-27T04:58:12.236Z,8.90
2018-06-27T05:00:40.722Z,8.90
2018-06-27T05:03:09.311Z,9.00
2018-06-27T05:05:37.819Z,9.10
2018-06-27T05:08:06.480Z,9.20
2018-06-27T05:10:38.055Z,9.30
2018-06-27T05:13:06.665Z,9.40
2018-06-27T05:15:35.099Z,9.60
2018-06-27T05:18:04.232Z,9.70
2018-06-27T05:20:32.648Z,9.80
2018-06-27T05:23:01.203Z,10.00
2018-06-27T05:25:29.883Z,10.10
2018-06-27T05:27:58.381Z,10.20
2018-06-27T05:30:26.997Z,10.40
2018-06-27T05:32:55.554Z,10.60
2018-06-27T05:35:24.547Z,10.70
2018-06-27T05:37:53.107Z,10.80
2018-06-27T05:40:21.896Z,11.00
2018-06-27T05:42:51.120Z,11.20
2018-06-27T05:45:19.712Z,11.40
2018-06-27T05:47:48.187Z,11.50
2018-06-27T05:50:16.834Z,11.70
2018-06-27T05:52:45.412Z,12.00
2018-06-27T05:55:13.991Z,12.10
2018-06-27T05:57:43.019Z,12.20
2018-06-27T06:00:13.047Z,12.40
2018-06-27T06:02:41.519Z,12.50
2018-06-27T06:05:10.521Z,12.60
2018-06-27T06:07:39.040Z,12.80
2018-06-27T06:10:07.690Z,13.00
2018-06-27T06:12:36.163Z,13.10
2018-06-27T06:15:05.663Z,13.20
2018-06-27T06:17:34.190Z,13.30
2018-06-27T06:20:02.858Z,13.50
2018-06-27T06:22:31.774Z,13.60
2018-06-27T06:25:00.360Z,13.70
2018-06-27T06:27:28.792Z,13.80
2018-06-27T06:29:57.487Z,14.00
2018-06-27T06:32:26.800Z,14.20
2018-06-27T06:34:55.247Z,14.30
2018-06-27T06:37:23.771Z,14.50
2018-06-27T06:39:52.252Z,14.70
2018-06-27T06:42:20.866Z,14.90
2018-06-27T06:44:49.488Z,15.10
2018-06-27T06:47:18.072Z,15.20
2018-06-27T06:49:46.780Z,15.30
2018-06-27T06:52:15.399Z,15.50
2018-06-27T06:54:44.187Z,15.60
2018-06-27T06:57:12.714Z,15.80
2018-06-27T06:59:41.316Z,16.10
2018-06-27T07:02:09.795Z,16.40
2018-06-27T07:04:38.299Z,16.70
2018-06-27T07:07:07.676Z,16.90
2018-06-27T07:09:36.154Z,17.20
2018-06-27T07:12:04.831Z,17.30
2018-06-27T07:14:33.368Z,17.50
2018-06-27T07:17:02.008Z,17.60
2018-06-27T07:19:30.587Z,17.70
2018-06-27T07:21:59.220Z,17.80
2018-06-27T07:24:27.815Z,17.90
2018-06-27T07:26:56.472Z,18.00
2018-06-27T07:29:25.028Z,18.10
2018-06-27T07:31:53.897Z,18.10
2018-06-27T07:34:22.548Z,18.20
2018-06-27T07:36:51.010Z,18.30
2018-06-27T07:39:19.596Z,18.40
2018-06-27T07:41:48.371Z,18.50
2018-06-27T07:44:16.952Z,18.60
2018-06-27T07:46:46.351Z,18.80
2018-06-27T07:49:15.701Z,18.90
2018-06-27T07:51:45.301Z,19.00
2018-06-27T07:54:13.876Z,19.20
2018-06-27T07:56:42.381Z,19.30
2018-06-27T07:59:11.020Z,19.40
2018-06-27T08:01:39.606Z,19.50
2018-06-27T08:04:08.430Z,19.60
2018-06-27T08:06:41.352Z,19.80
2018-06-27T08:09:10.935Z,19.60
2018-06-27T08:11:40.445Z,19.70
2018-06-27T08:14:09.145Z,19.90
2018-06-27T08:16:37.605Z,20.10
2018-06-27T08:19:06.131Z,20.40
2018-06-27T08:21:34.651Z,20.60
2018-06-27T08:24:03.687Z,20.90
2018-06-27T08:26:32.481Z,20.80
2018-06-27T08:31:30.144Z,21.00
2018-06-27T08:33:58.805Z,21.30
2018-06-27T08:36:27.268Z,21.40
2018-06-27T08:38:56.079Z,21.50
2018-06-27T08:41:25.489Z,21.50
2018-06-27T08:43:53.954Z,21.40
2018-06-27T08:46:22.715Z,21.20
2018-06-27T08:48:51.360Z,21.20
2018-06-27T08:51:19.948Z,21.20
2018-06-27T08:53:48.578Z,21.60
2018-06-27T08:56:17.134Z,22.00
2018-06-27T08:58:45.696Z,22.20
2018-06-27T09:03:42.727Z,22.20
2018-06-27T09:06:11.314Z,22.30
2018-06-27T09:08:39.870Z,22.50
2018-06-27T09:11:08.591Z,22.70
2018-06-27T09:13:37.320Z,22.80
2018-06-27T09:16:05.868Z,22.70
2018-06-27T09:18:34.648Z,22.60
2018-06-27T09:21:03.237Z,22.80
2018-06-27T09:23:32.397Z,22.70
2018-06-27T09:26:00.900Z,22.70
2018-06-27T09:28:29.620Z,22.40
2018-06-27T09:30:58.231Z,22.30
2018-06-27T09:33:27.046Z,22.20
2018-06-27T09:35:55.564Z,22.10
2018-06-27T09:38:24.121Z,22.00
2018-06-27T09:40:52.976Z,21.70
2018-06-27T09:43:21.926Z,21.40
2018-06-27T09:45:50.466Z,21.10
2018-06-27T09:48:18.960Z,21.20
2018-06-27T09:50:47.742Z,21.10
2018-06-27T09:53:16.587Z,21.30
2018-06-27T09:55:45.994Z,21.70
2018-06-27T09:58:15.540Z,22.20
2018-06-27T10:00:44.004Z,22.40
2018-06-27T10:03:12.460Z,22.20
2018-06-27T10:05:41.500Z,21.90
2018-06-27T10:08:10.175Z,22.00
2018-06-27T10:10:38.773Z,22.40
2018-06-27T10:13:07.352Z,22.60
2018-06-27T10:15:36.119Z,22.80
2018-06-27T10:18:04.879Z,22.50
2018-06-27T10:20:33.621Z,22.40
2018-06-27T10:23:02.279Z,22.20
2018-06-27T10:25:30.955Z,22.30
2018-06-27T10:28:00.359Z,22.50
2018-06-27T10:30:29.111Z,22.60
2018-06-27T10:32:58.985Z,23.00
2018-06-27T10:35:27.628Z,23.30
2018-06-27T10:37:56.304Z,23.40
2018-06-27T10:40:25.008Z,23.30
2018-06-27T10:42:53.795Z,22.70
2018-06-27T10:45:22.683Z,22.40
2018-06-27T10:47:51.234Z,22.20
2018-06-27T10:50:20.407Z,22.20
2018-06-27T10:52:48.928Z,22.40
2018-06-27T10:55:20.015Z,22.90
2018-06-27T10:57:48.858Z,23.60
2018-06-27T11:00:17.354Z,23.80
2018-06-27T11:02:45.955Z,24.00
2018-06-27T11:05:14.772Z,23.70
2018-06-27T11:07:44.195Z,23.60
2018-06-27T11:10:13.298Z,24.20
2018-06-27T11:12:41.947Z,24.30
2018-06-27T11:15:10.489Z,23.70
2018-06-27T11:17:39.013Z,23.20
2018-06-27T11:20:07.467Z,22.80
2018-06-27T11:22:36.139Z,22.50
2018-06-27T11:25:04.831Z,22.60
2018-06-27T11:27:34.149Z,22.60
2018-06-27T11:30:02.753Z,22.60
2018-06-27T11:32:31.273Z,22.90
2018-06-27T11:35:00.268Z,23.50
2018-06-27T11:37:28.844Z,24.20
2018-06-27T11:39:57.483Z,24.70
2018-06-27T11:42:26.293Z,24.60
2018-06-27T11:44:54.984Z,24.80
2018-06-27T11:47:23.530Z,25.60
2018-06-27T11:49:52.018Z,26.10
2018-06-27T11:52:21.341Z,25.80
2018-06-27T11:54:55.327Z,25.40
2018-06-27T11:57:23.866Z,25.60
2018-06-27T11:59:52.764Z,25.60
2018-06-27T12:02:21.475Z,25.50
2018-06-27T12:04:49.955Z,25.00
2018-06-27T12:07:18.671Z,24.40
2018-06-27T12:09:47.367Z,23.90
2018-06-27T12:12:15.947Z,23.40
2018-06-27T12:14:44.558Z,22.80
2018-06-27T12:17:13.127Z,23.00
2018-06-27T12:19:41.752Z,23.60
2018-06-27T12:22:10.270Z,24.10
2018-06-27T12:24:38.772Z,24.60
2018-06-27T12:27:07.340Z,25.20
2018-06-27T12:29:35.873Z,25.50
2018-06-27T12:32:04.420Z,25.40
2018-06-27T12:37:01.333Z,26.10
2018-06-27T12:39:30.038Z,25.80
2018-06-27T12:41:58.800Z,25.20
2018-06-27T12:44:27.341Z,25.60
2018-06-27T12:46:55.950Z,25.60
2018-06-27T12:49:24.557Z,25.40
2018-06-27T12:51:53.215Z,25.50
2018-06-27T12:54:21.775Z,25.50
2018-06-27T12:56:50.335Z,25.50
2018-06-27T12:59:19.229Z,25.80
2018-06-27T13:01:47.933Z,26.20
2018-06-27T13:04:16.475Z,26.30
2018-06-27T13:06:45.164Z,25.80
2018-06-27T13:09:14.022Z,26.00
2018-06-27T13:11:42.720Z,26.10
2018-06-27T13:14:11.238Z,25.70
2018-06-27T13:16:40.079Z,26.30
2018-06-27T13:19:08.799Z,26.30
2018-06-27T13:21:37.481Z,26.50
2018-06-27T13:24:06.127Z,26.30
2018-06-27T13:26:34.738Z,25.80
2018-06-27T13:29:03.328Z,25.60
2018-06-27T13:31:32.587Z,26.20
2018-06-27T13:34:01.134Z,26.80
2018-06-27T13:36:29.659Z,27.60
2018-06-27T13:38:58.330Z,27.30
2018-06-27T13:41:27.675Z,27.20
2018-06-27T13:43:57.079Z,27.10
2018-06-27T13:46:25.987Z,27.30
2018-06-27T13:48:54.762Z,27.20
2018-06-27T13:51:23.526Z,28.20
2018-06-27T13:53:52.090Z,27.60
2018-06-27T13:56:20.829Z,27.20
2018-06-27T13:58:49.720Z,27.40
2018-06-27T14:01:18.388Z,28.50
2018-06-27T14:03:47.473Z,29.40
2018-06-27T14:06:16.128Z,28.60
2018-06-27T14:08:44.628Z,28.10
2018-06-27T14:11:14.535Z,27.60
2018-06-27T14:13:50.613Z,28.30
2018-06-27T14:16:19.126Z,29.80
2018-06-27T14:18:48.106Z,29.90
2018-06-27T14:21:16.604Z,31.00
2018-06-27T14:23:45.249Z,31.70
2018-06-27T14:26:13.823Z,31.50
2018-06-27T14:28:45.995Z,31.80
2018-06-27T14:31:14.585Z,32.40
2018-06-27T14:33:43.220Z,32.50
2018-06-27T14:36:12.025Z,32.30
2018-06-27T14:38:40.552Z,32.00
2018-06-27T14:41:09.920Z,32.00
2018-06-27T14:43:39.523Z,30.80
2018-06-27T14:46:08.356Z,29.60
2018-06-27T14:48:36.867Z,30.70
2018-06-27T14:51:05.504Z,30.40
2018-06-27T14:53:35.356Z,29.10
2018-06-27T14:56:04.253Z,28.20
2018-06-27T14:58:32.976Z,28.30
2018-06-27T15:01:01.594Z,28.20
2018-06-27T15:03:30.527Z,28.70
2018-06-27T15:05:59.154Z,30.60
2018-06-27T15:08:27.637Z,32.20
2018-06-27T15:10:56.306Z,32.30
2018-06-27T15:13:24.814Z,33.20
2018-06-27T15:15:53.485Z,32.00
2018-06-27T15:18:22.237Z,31.60
2018-06-27T15:20:50.763Z,32.10
2018-06-27T15:23:19.387Z,32.70
2018-06-27T15:25:47.868Z,34.30
2018-06-27T15:28:16.397Z,34.60
2018-06-27T15:30:45.070Z,35.20
2018-06-27T15:33:13.497Z,34.80
2018-06-27T15:35:42.256Z,35.70
2018-06-27T15:38:10.850Z,36.10
2018-06-27T15:40:39.406Z,35.00
2018-06-27T15:43:08.667Z,33.90
2018-06-27T15:45:37.420Z,34.00
2018-06-27T15:48:06.146Z,33.20
2018-06-27T15:50:34.830Z,32.70
2018-06-27T15:53:03.830Z,33.30
2018-06-27T15:55:32.635Z,33.40
2018-06-27T15:58:01.900Z,34.50
2018-06-27T16:00:30.679Z,35.70
2018-06-27T16:02:59.451Z,36.80
2018-06-27T16:05:28.769Z,36.30
2018-06-27T16:07:57.467Z,35.80
2018-06-27T16:10:26.775Z,35.50
2018-06-27T16:12:55.423Z,36.00
2018-06-27T16:15:24.682Z,35.70
2018-06-27T16:17:53.401Z,35.00
2018-06-27T16:20:22.722Z,34.30
2018-06-27T16:22:51.592Z,34.50
2018-06-27T16:25:20.469Z,34.40
2018-06-27T16:27:48.967Z,34.70
2018-06-27T16:30:17.636Z,35.80
2018-06-27T16:32:46.279Z,36.30
2018-06-27T16:35:15.039Z,36.40
2018-06-27T16:37:43.674Z,36.60
2018-06-27T16:40:12.235Z,35.90
2018-06-27T16:42:41.198Z,35.40
2018-06-27T16:45:09.877Z,33.40
2018-06-27T16:47:38.416Z,31.50
2018-06-27T16:50:07.768Z,29.90
2018-06-27T16:52:36.335Z,30.20
2018-06-27T16:55:04.999Z,31.40
2018-06-27T16:57:33.817Z,32.30
2018-06-27T17:00:02.413Z,32.80
2018-06-27T17:02:30.953Z,32.70
2018-06-27T17:05:00.300Z,32.20
2018-06-27T17:07:28.806Z,32.80
2018-06-27T17:09:57.848Z,32.00
2018-06-27T17:12:26.626Z,32.80
2018-06-27T17:14:55.184Z,33.40
2018-06-27T17:17:23.847Z,33.70
2018-06-27T17:19:52.389Z,34.30
2018-06-27T17:22:20.955Z,34.60
2018-06-27T17:24:49.763Z,33.90
2018-06-27T17:27:19.159Z,34.60
2018-06-27T17:29:47.815Z,34.00
2018-06-27T17:32:17.063Z,32.70
2018-06-27T17:34:45.681Z,32.20
2018-06-27T17:37:14.168Z,31.90
2018-06-27T17:39:42.787Z,32.20
2018-06-27T17:42:11.580Z,31.50
2018-06-27T17:44:40.149Z,31.60
2018-06-27T17:47:08.651Z,30.60
2018-06-27T17:49:37.530Z,30.10
2018-06-27T17:54:35.328Z,31.00
2018-06-27T17:57:04.371Z,30.80
2018-06-27T17:59:33.530Z,31.30
2018-06-27T18:02:02.684Z,31.50
2018-06-27T18:06:59.496Z,30.60
2018-06-27T18:09:28.199Z,30.00
2018-06-27T18:11:56.870Z,29.00
2018-06-27T18:14:25.547Z,27.70
2018-06-27T18:16:54.308Z,26.40
2018-06-27T18:19:22.915Z,25.40
2018-06-27T18:21:51.673Z,24.80
2018-06-27T18:24:20.204Z,24.50
2018-06-27T18:26:48.941Z,24.30
2018-06-27T18:31:45.805Z,23.70
2018-06-27T18:34:14.440Z,23.50
2018-06-27T18:36:43.168Z,23.40
2018-06-27T18:39:12.080Z,23.30
2018-06-27T18:41:40.894Z,23.20
2018-06-27T18:44:09.548Z,23.20
2018-06-27T18:46:38.287Z,23.10
2018-06-27T18:49:07.090Z,22.90
2018-06-27T18:51:35.685Z,22.80
2018-06-27T18:54:04.340Z,22.70
2018-06-27T18:56:32.831Z,22.60
2018-06-27T18:59:01.411Z,22.30
2018-06-27T19:01:30.040Z,22.00
2018-06-27T19:03:58.611Z,22.00
2018-06-27T19:06:27.349Z,21.80
2018-06-27T19:08:55.966Z,21.70
2018-06-27T19:11:25.128Z,21.60
2018-06-27T19:13:53.990Z,21.40
2018-06-27T19:16:22.650Z,21.10
2018-06-27T19:18:51.189Z,21.10
2018-06-27T19:21:19.771Z,21.00
2018-06-27T19:23:48.458Z,21.10
2018-06-27T19:26:17.020Z,21.00
2018-06-27T19:28:45.546Z,21.00
2018-06-27T19:31:14.277Z,20.90
2018-06-27T19:33:43.026Z,20.80
2018-06-27T19:36:11.640Z,20.70
2018-06-27T19:38:40.292Z,20.50
2018-06-27T19:41:08.784Z,20.40
2018-06-27T19:43:37.523Z,20.10
2018-06-27T19:46:06.113Z,20.00
2018-06-27T19:48:34.706Z,19.90
2018-06-27T19:51:03.542Z,19.80
2018-06-27T19:53:32.204Z,19.60
2018-06-27T19:56:00.710Z,19.40
2018-06-27T19:58:30.049Z,19.10
2018-06-27T20:00:58.797Z,18.90
2018-06-27T20:03:27.652Z,18.80
2018-06-27T20:05:56.461Z,18.60
2018-06-27T20:08:25.270Z,18.60
2018-06-27T20:10:53.974Z,18.50
2018-06-27T20:13:23.683Z,18.50
2018-06-27T20:15:52.342Z,18.40
2018-06-27T20:18:20.953Z,18.30
2018-06-27T20:20:49.702Z,18.20
2018-06-27T20:23:18.752Z,18.20
2018-06-27T20:28:15.654Z,18.20
2018-06-27T20:30:44.423Z,18.10
2018-06-27T20:33:13.056Z,18.10
2018-06-27T20:35:41.927Z,18.10
2018-06-27T20:38:10.520Z,18.00
2018-06-27T20:40:39.796Z,18.10
2018-06-27T20:43:08.762Z,17.90
2018-06-27T20:45:37.862Z,17.90
2018-06-27T20:48:06.631Z,17.60
2018-06-27T20:50:35.561Z,17.50
2018-06-27T20:53:04.582Z,17.40
2018-06-27T20:55:33.224Z,17.40
2018-06-27T20:58:02.645Z,17.20
2018-06-27T21:00:31.282Z,16.80
2018-06-27T21:02:59.788Z,16.60
2018-06-27T21:05:28.957Z,16.40
2018-06-27T21:07:57.672Z,16.20
2018-06-27T21:10:26.191Z,16.00
2018-06-27T21:12:54.799Z,16.00
2018-06-27T21:15:23.532Z,15.90
2018-06-27T21:17:52.078Z,15.80
2018-06-27T21:20:21.565Z,15.70
2018-06-27T21:22:50.173Z,15.50
2018-06-27T21:25:19.548Z,15.30
2018-06-27T21:27:48.093Z,15.30
2018-06-27T21:30:17.739Z,15.40
2018-06-27T21:32:46.551Z,15.30
2018-06-27T21:35:15.077Z,15.20
2018-06-27T21:37:43.568Z,15.20
2018-06-27T21:40:13.438Z,15.30
2018-06-27T21:42:42.196Z,15.40
2018-06-27T21:45:11.004Z,15.40
2018-06-27T21:47:39.452Z,15.40
2018-06-27T21:50:08.191Z,15.30
2018-06-27T21:52:36.824Z,15.20
2018-06-27T21:55:05.737Z,15.00
2018-06-27T21:57:34.435Z,15.00
2018-06-27T22:00:03.158Z,14.90
2018-06-27T22:02:31.855Z,14.80
2018-06-27T22:05:00.540Z,14.70
2018-06-27T22:07:29.906Z,14.50
2018-06-27T22:09:58.483Z,14.40
2018-06-27T22:12:27.136Z,14.30
2018-06-27T22:14:56.492Z,14.40
2018-06-27T22:17:25.066Z,14.30
2018-06-27T22:19:53.568Z,14.20
2018-06-27T22:22:22.156Z,14.00
2018-06-27T22:24:51.535Z,13.80
2018-06-27T22:27:20.397Z,13.80
2018-06-27T22:29:48.884Z,13.80
2018-06-27T22:32:17.429Z,13.80
2018-06-27T22:34:46.041Z,13.80
2018-06-27T22:37:15.207Z,13.70
2018-06-27T22:39:43.719Z,13.60
2018-06-27T22:42:12.325Z,13.50
2018-06-27T22:44:41.488Z,13.40
2018-06-27T22:47:09.946Z,13.30
2018-06-27T22:49:38.634Z,13.00
2018-06-27T22:52:07.355Z,12.90
2018-06-27T22:54:35.954Z,12.90
2018-06-27T22:57:04.736Z,12.80
2018-06-27T22:59:33.942Z,12.60
2018-06-27T23:02:02.964Z,12.40
2018-06-27T23:04:31.699Z,12.40
2018-06-27T23:07:01.403Z,12.40
2018-06-27T23:09:30.805Z,12.40
2018-06-27T23:11:59.848Z,12.30
2018-06-27T23:14:29.112Z,12.10
2018-06-27T23:16:57.592Z,12.10
2018-06-27T23:19:27.420Z,12.00
2018-06-27T23:21:55.938Z,12.10
2018-06-27T23:24:24.687Z,12.00
2018-06-27T23:26:53.293Z,11.90
2018-06-27T23:29:21.724Z,11.90
2018-06-27T23:31:50.281Z,11.80
2018-06-27T23:34:18.859Z,11.70
2018-06-27T23:36:48.152Z,11.70
2018-06-27T23:39:17.731Z,11.60
2018-06-27T23:41:46.342Z,11.70
2018-06-27T23:44:15.004Z,11.70
2018-06-27T23:46:43.648Z,11.70
2018-06-27T23:49:12.280Z,11.60
2018-06-27T23:51:41.844Z,11.50
2018-06-27T23:54:10.361Z,11.40
2018-06-27T23:56:39.460Z,11.30
2018-06-27T23:59:08.163Z,11.20
